Time;durP1;ratioP1;P1;durP2;ratioP2;P2;SDS_P1;SDS_P2;PMS_P1;PMS_P2;Temp;Humidity;BMP_temperature;BMP_pressure;BME280_temperature;BME280_humidity;BME280_pressure;Samples;Min_cycle;Max_cycle;Signal;HPM_P1;HPM_P2
2024/03/20 00:01:04;;;;;;;;;;;20.00;47.70;;;;;;8361663;28;19917;-54
2024/03/20 00:05:05;;;;;;;;;;;20.00;47.60;;;;;;8361765;28;19917;-57
2024/03/20 00:09:07;;;;;;;;;;;20.00;47.70;;;;;;8341063;28;19916;-57
2024/03/20 00:13:08;;;;;;;;;;;20.00;47.80;;;;;;8343238;27;19921;-55
2024/03/20 00:17:09;;;;;;;;;;;20.00;47.70;;;;;;8361339;28;19924;-57
2024/03/20 00:21:10;;;;;;;;;;;20.00;47.70;;;;;;8361399;28;19913;-57
2024/03/20 00:25:10;;;;;;;;;;;19.90;47.50;;;;;;8361068;28;19913;-56
2024/03/20 00:29:11;;;;;;;;;;;19.90;47.50;;;;;;8359732;28;19913;-56
2024/03/20 00:33:11;;;;;;;;;;;19.90;47.60;;;;;;8361078;28;19913;-58
2024/03/20 00:37:12;;;;;;;;;;;19.90;47.50;;;;;;8360196;28;20382;-57
2024/03/20 00:41:13;;;;;;;;;;;19.90;47.60;;;;;;8360994;28;19913;-57
2024/03/20 00:45:14;;;;;;;;;;;19.90;47.60;;;;;;8360468;28;19917;-57
2024/03/20 00:49:14;;;;;;;;;;;19.90;47.60;;;;;;8360402;27;19916;-58
2024/03/20 00:53:15;;;;;;;;;;;19.90;47.60;;;;;;8360537;28;20004;-58
2024/03/20 00:57:15;;;;;;;;;;;19.90;47.60;;;;;;8360230;28;20289;-57
2024/03/20 01:01:16;;;;;;;;;;;19.90;47.60;;;;;;8359988;28;19913;-56
2024/03/20 01:05:16;;;;;;;;;;;19.90;47.50;;;;;;8358868;28;20303;-58
2024/03/20 01:09:21;;;;;;;;;;;19.90;47.70;;;;;;8337984;28;20328;-58
2024/03/20 01:13:22;;;;;;;;;;;19.90;47.50;;;;;;8343428;27;20324;-57
2024/03/20 01:17:23;;;;;;;;;;;19.90;47.50;;;;;;8344201;28;20445;-59
2024/03/20 01:21:23;;;;;;;;;;;19.90;47.50;;;;;;8326818;28;20294;-58
2024/03/20 01:25:24;;;;;;;;;;;20.00;47.10;;;;;;8349649;28;19965;-57
2024/03/20 01:29:25;;;;;;;;;;;20.10;46.30;;;;;;8359510;28;19916;-58
2024/03/20 01:33:26;;;;;;;;;;;20.20;45.80;;;;;;8358421;28;19913;-58
2024/03/20 01:37:26;;;;;;;;;;;20.30;45.40;;;;;;8359020;27;20118;-57
2024/03/20 01:41:27;;;;;;;;;;;20.40;45.20;;;;;;8358641;27;19913;-57
2024/03/20 01:45:27;;;;;;;;;;;20.40;45.00;;;;;;8357814;28;19920;-58
2024/03/20 01:49:31;;;;;;;;;;;20.40;44.80;;;;;;8359014;28;20396;-59
2024/03/20 01:53:32;;;;;;;;;;;20.50;44.70;;;;;;8358751;28;19923;-58
2024/03/20 01:57:32;;;;;;;;;;;20.50;44.40;;;;;;8339521;28;20382;-57
2024/03/20 02:01:33;;;;;;;;;;;20.40;45.10;;;;;;8349325;28;19919;-56
2024/03/20 02:05:34;;;;;;;;;;;20.20;45.90;;;;;;8388676;28;19916;-57
2024/03/20 02:09:34;;;;;;;;;;;20.10;45.90;;;;;;8388467;28;19916;-57
2024/03/20 02:13:42;;;;;;;;;;;20.10;46.00;;;;;;8369847;27;20035;-56
2024/03/20 02:17:43;;;;;;;;;;;20.10;45.10;;;;;;8356078;28;19965;-56
2024/03/20 02:21:44;;;;;;;;;;;20.10;44.70;;;;;;8356089;28;20393;-56
2024/03/20 02:25:47;;;;;;;;;;;20.10;44.50;;;;;;8355625;28;20318;-57
2024/03/20 02:29:48;;;;;;;;;;;20.10;44.30;;;;;;8356149;28;19913;-55
2024/03/20 02:33:48;;;;;;;;;;;20.10;44.20;;;;;;8355773;28;20011;-57
2024/03/20 02:37:49;;;;;;;;;;;20.10;44.00;;;;;;8355559;28;20061;-56
2024/03/20 02:41:50;;;;;;;;;;;20.10;43.90;;;;;;8355794;27;19920;-55
2024/03/20 02:45:50;;;;;;;;;;;20.10;43.80;;;;;;8355224;28;19913;-57
2024/03/20 02:49:53;;;;;;;;;;;20.00;44.90;;;;;;8355465;28;19913;-57
2024/03/20 02:53:53;;;;;;;;;;;19.80;45.70;;;;;;8354587;28;20426;-54
2024/03/20 02:57:54;;;;;;;;;;;19.80;45.50;;;;;;8354963;28;20311;-54
2024/03/20 03:01:55;;;;;;;;;;;19.80;44.90;;;;;;8355286;28;20047;-52
2024/03/20 03:05:55;;;;;;;;;;;19.90;44.50;;;;;;8355248;28;19913;-53
2024/03/20 03:09:56;;;;;;;;;;;19.90;44.30;;;;;;8354810;28;19909;-53
2024/03/20 03:13:56;;;;;;;;;;;20.00;44.10;;;;;;8354887;27;19929;-52
2024/03/20 03:17:58;;;;;;;;;;;19.90;43.90;;;;;;8354926;28;20301;-54
2024/03/20 03:21:58;;;;;;;;;;;19.90;43.70;;;;;;8354589;28;19913;-54
2024/03/20 03:25:59;;;;;;;;;;;20.00;43.70;;;;;;8354862;28;19920;-54
2024/03/20 03:30:00;;;;;;;;;;;19.90;43.60;;;;;;8354673;28;19912;-53
2024/03/20 03:34:00;;;;;;;;;;;20.00;43.50;;;;;;8354581;28;20410;-54
2024/03/20 03:38:01;;;;;;;;;;;19.80;44.60;;;;;;8354309;28;20303;-54
2024/03/20 03:42:01;;;;;;;;;;;19.70;45.50;;;;;;8356206;27;19913;-53
2024/03/20 03:46:02;;;;;;;;;;;19.70;45.10;;;;;;8354279;28;19935;-54
2024/03/20 03:50:03;;;;;;;;;;;19.70;44.50;;;;;;8354156;28;19913;-54
2024/03/20 03:54:04;;;;;;;;;;;19.80;44.10;;;;;;8354047;28;19920;-52
2024/03/20 03:58:04;;;;;;;;;;;19.90;43.90;;;;;;8354122;28;19921;-54
2024/03/20 04:02:05;;;;;;;;;;;19.90;43.70;;;;;;8354105;28;19970;-55
2024/03/20 04:06:05;;;;;;;;;;;19.90;43.60;;;;;;8359360;28;20484;-55
2024/03/20 04:10:06;;;;;;;;;;;19.90;43.40;;;;;;8359475;28;19908;-55
2024/03/20 04:14:07;;;;;;;;;;;19.90;43.30;;;;;;8361473;27;19921;-55
2024/03/20 04:18:08;;;;;;;;;;;19.90;43.20;;;;;;8359253;28;19967;-55
2024/03/20 04:22:09;;;;;;;;;;;19.90;43.20;;;;;;8359007;28;19912;-55
2024/03/20 04:26:09;;;;;;;;;;;19.80;44.30;;;;;;8359036;28;20385;-55
2024/03/20 04:30:12;;;;;;;;;;;19.60;45.20;;;;;;8341383;28;19948;-55
2024/03/20 04:34:12;;;;;;;;;;;19.60;44.70;;;;;;8358826;28;20290;-55
2024/03/20 04:38:13;;;;;;;;;;;19.70;44.30;;;;;;8358594;28;19977;-56
2024/03/20 04:42:13;;;;;;;;;;;19.70;43.80;;;;;;8358888;27;19913;-55
2024/03/20 04:46:14;;;;;;;;;;;19.80;43.70;;;;;;8358507;28;19935;-56
2024/03/20 04:50:15;;;;;;;;;;;19.80;43.50;;;;;;8358759;28;20019;-55
2024/03/20 04:54:16;;;;;;;;;;;19.80;43.30;;;;;;8358476;28;20378;-55
2024/03/20 04:58:16;;;;;;;;;;;19.80;43.20;;;;;;8358306;28;19917;-55
2024/03/20 05:02:17;;;;;;;;;;;19.80;43.10;;;;;;8358478;28;19913;-55
2024/03/20 05:06:17;;;;;;;;;;;19.80;43.00;;;;;;8358199;28;20293;-55
2024/03/20 05:10:18;;;;;;;;;;;19.80;42.90;;;;;;8358107;28;19913;-53
2024/03/20 05:14:19;;;;;;;;;;;19.70;44.20;;;;;;8356910;27;19925;-56
2024/03/20 05:18:20;;;;;;;;;;;19.50;44.90;;;;;;8357517;28;19923;-56
2024/03/20 05:22:20;;;;;;;;;;;19.60;44.20;;;;;;8357822;28;19913;-57
2024/03/20 05:26:21;;;;;;;;;;;19.70;43.60;;;;;;8340150;28;19919;-56
2024/03/20 05:30:21;;;;;;;;;;;19.80;43.30;;;;;;8357376;28;19965;-55
2024/03/20 05:34:23;;;;;;;;;;;19.90;42.90;;;;;;8357257;28;19924;-56
2024/03/20 05:38:24;;;;;;;;;;;19.90;42.60;;;;;;8357377;28;19916;-56
2024/03/20 05:42:25;;;;;;;;;;;19.90;42.50;;;;;;8356872;27;19944;-56
2024/03/20 05:46:25;;;;;;;;;;;20.00;42.40;;;;;;8357031;28;19942;-56
2024/03/20 05:50:26;;;;;;;;;;;19.90;42.20;;;;;;8356782;28;19920;-57
2024/03/20 05:54:27;;;;;;;;;;;20.00;42.20;;;;;;8339109;28;19939;-56
2024/03/20 05:58:27;;;;;;;;;;;19.90;42.20;;;;;;8356695;28;19989;-56
2024/03/20 06:02:28;;;;;;;;;;;19.80;43.60;;;;;;8356523;28;20473;-56
2024/03/20 06:06:28;;;;;;;;;;;19.70;44.20;;;;;;8356577;28;19917;-55
2024/03/20 06:10:29;;;;;;;;;;;19.80;43.60;;;;;;8356871;28;20293;-56
2024/03/20 06:14:30;;;;;;;;;;;19.80;43.00;;;;;;8355979;27;20406;-56
2024/03/20 06:18:31;;;;;;;;;;;19.90;42.70;;;;;;8356455;28;20020;-57
2024/03/20 06:22:34;;;;;;;;;;;19.90;42.40;;;;;;8356211;28;19996;-55
2024/03/20 06:26:35;;;;;;;;;;;20.00;42.20;;;;;;8355912;28;19912;-57
2024/03/20 06:30:35;;;;;;;;;;;20.00;42.10;;;;;;8356195;28;19917;-58
2024/03/20 06:34:37;;;;;;;;;;;20.00;42.50;;;;;;8337938;28;20327;-57
2024/03/20 06:38:37;;;;;;;;;;;20.00;41.90;;;;;;8355591;28;19924;-56
2024/03/20 06:42:38;;;;;;;;;;;20.00;41.80;;;;;;8355570;28;19920;-56
2024/03/20 06:46:38;;;;;;;;;;;20.00;42.00;;;;;;8355602;28;19908;-56
2024/03/20 06:50:40;;;;;;;;;;;19.80;43.40;;;;;;8355265;28;19953;-53
2024/03/20 06:54:42;;;;;;;;;;;19.70;43.80;;;;;;8355432;28;19913;-57
2024/03/20 06:58:44;;;;;;;;;;;19.80;43.20;;;;;;8355297;28;19916;-56
2024/03/20 07:02:45;;;;;;;;;;;19.80;42.70;;;;;;8355295;28;19943;-55
2024/03/20 07:06:46;;;;;;;;;;;19.90;42.40;;;;;;8355249;28;20366;-56
2024/03/20 07:10:46;;;;;;;;;;;19.90;42.10;;;;;;8355244;28;19928;-57
2024/03/20 07:14:47;;;;;;;;;;;19.90;42.00;;;;;;8354882;27;20390;-57
2024/03/20 07:18:48;;;;;;;;;;;20.00;41.90;;;;;;8354899;28;19917;-57
2024/03/20 07:22:48;;;;;;;;;;;20.00;41.80;;;;;;8354729;28;20320;-56
2024/03/20 07:26:49;;;;;;;;;;;20.00;41.60;;;;;;8354859;28;20385;-57
2024/03/20 07:30:50;;;;;;;;;;;20.00;41.60;;;;;;8354797;28;20003;-57
2024/03/20 07:34:51;;;;;;;;;;;20.00;41.90;;;;;;8354674;28;19913;-55
2024/03/20 07:38:51;;;;;;;;;;;19.80;43.20;;;;;;8357068;28;19917;-56
2024/03/20 07:42:52;;;;;;;;;;;19.70;43.60;;;;;;8360157;27;19917;-56
2024/03/20 07:46:52;;;;;;;;;;;19.80;42.80;;;;;;8361592;28;19963;-58
2024/03/20 07:50:54;;;;;;;;;;;19.80;42.30;;;;;;8360039;28;19917;-57
2024/03/20 07:54:54;;;;;;;;;;;19.90;42.10;;;;;;8359929;28;19948;-56
2024/03/20 07:58:55;;;;;;;;;;;19.90;41.80;;;;;;8359964;28;19917;-57
2024/03/20 08:02:56;;;;;;;;;;;20.00;41.70;;;;;;8359903;28;19920;-57
2024/03/20 08:06:56;;;;;;;;;;;20.00;41.60;;;;;;8359596;28;19939;-57
2024/03/20 08:10:57;;;;;;;;;;;20.00;41.50;;;;;;8359674;28;19913;-56
2024/03/20 08:14:57;;;;;;;;;;;20.00;41.40;;;;;;8359394;27;19954;-55
2024/03/20 08:19:00;;;;;;;;;;;19.90;41.30;;;;;;8359294;28;20391;-57
2024/03/20 08:23:01;;;;;;;;;;;19.90;41.90;;;;;;8359194;28;19913;-57
2024/03/20 08:27:02;;;;;;;;;;;19.70;43.20;;;;;;8359249;28;19916;-56
2024/03/20 08:31:06;;;;;;;;;;;19.70;43.30;;;;;;8359095;28;19944;-55
2024/03/20 08:35:07;;;;;;;;;;;19.70;42.60;;;;;;8359010;28;19909;-56
2024/03/20 08:39:08;;;;;;;;;;;19.80;42.20;;;;;;8358729;28;19917;-57
2024/03/20 08:43:10;;;;;;;;;;;19.80;41.90;;;;;;8359084;28;20380;-57
2024/03/20 08:47:10;;;;;;;;;;;19.90;41.70;;;;;;8358639;28;19913;-56
2024/03/20 08:51:11;;;;;;;;;;;19.90;41.50;;;;;;8357416;28;19916;-55
2024/03/20 08:55:11;;;;;;;;;;;20.00;41.40;;;;;;8359353;28;19913;-56
2024/03/20 08:59:12;;;;;;;;;;;20.00;41.30;;;;;;8358127;28;20426;-56
2024/03/20 09:03:12;;;;;;;;;;;19.90;41.20;;;;;;8358115;28;19918;-57
2024/03/20 09:07:13;;;;;;;;;;;20.00;41.10;;;;;;8358154;28;19919;-55
2024/03/20 09:11:14;;;;;;;;;;;19.90;41.80;;;;;;8358047;28;20312;-56
2024/03/20 09:15:14;;;;;;;;;;;19.80;42.90;;;;;;8357530;27;19925;-56
2024/03/20 09:19:16;;;;;;;;;;;19.70;43.40;;;;;;8357656;28;20175;-57
2024/03/20 09:23:17;;;;;;;;;;;19.80;42.30;;;;;;8358381;28;19913;-56
2024/03/20 09:27:17;;;;;;;;;;;19.90;42.00;;;;;;8357967;28;19965;-55
2024/03/20 09:31:18;;;;;;;;;;;19.90;41.60;;;;;;8357344;28;19909;-56
2024/03/20 09:35:20;;;;;;;;;;;20.00;41.50;;;;;;8357614;28;20354;-56
2024/03/20 09:39:21;;;;;;;;;;;19.90;41.30;;;;;;8357078;28;20331;-56
2024/03/20 09:43:21;;;;;;;;;;;19.90;41.20;;;;;;8356734;27;19913;-56
2024/03/20 09:47:23;;;;;;;;;;;20.00;41.10;;;;;;8322927;28;19913;-56
2024/03/20 09:51:24;;;;;;;;;;;20.00;41.00;;;;;;8356917;28;19913;-56
2024/03/20 09:55:25;;;;;;;;;;;20.00;40.90;;;;;;8356780;28;19924;-55
2024/03/20 09:59:25;;;;;;;;;;;19.90;41.80;;;;;;8356692;28;20374;-54
2024/03/20 10:03:30;;;;;;;;;;;19.80;42.80;;;;;;8356180;28;19913;-55
2024/03/20 10:07:30;;;;;;;;;;;19.70;42.60;;;;;;8356624;28;19916;-54
2024/03/20 10:11:31;;;;;;;;;;;19.80;42.00;;;;;;8357260;27;19956;-55
2024/03/20 10:15:31;;;;;;;;;;;19.80;41.70;;;;;;8356173;28;19921;-54
2024/03/20 10:19:32;;;;;;;;;;;19.90;41.40;;;;;;8356243;28;19917;-55
2024/03/20 10:23:39;;;;;;;;;;;19.90;41.90;;;;;;8356175;28;20003;-55
2024/03/20 10:27:40;;;;;;;;;;;19.90;41.20;;;;;;8355850;28;19909;-55
2024/03/20 10:31:43;;;;;;;;;;;19.90;41.00;;;;;;8355776;28;19936;-53
2024/03/20 10:35:47;;;;;;;;;;;19.90;40.90;;;;;;8355799;28;19913;-55
2024/03/20 10:39:51;;;;;;;;;;;19.90;40.90;;;;;;8355462;28;20285;-54
2024/03/20 10:43:51;;;;;;;;;;;19.90;40.90;;;;;;8355640;27;19915;-54
2024/03/20 10:47:53;;;;;;;;;;;19.80;42.00;;;;;;8337711;28;19913;-55
2024/03/20 10:51:55;;;;;;;;;;;19.70;42.90;;;;;;8355240;28;19913;-55
2024/03/20 10:55:55;;;;;;;;;;;19.70;42.60;;;;;;8355433;28;20374;-55
2024/03/20 10:59:57;;;;;;;;;;;19.80;42.00;;;;;;8337172;28;20335;-54
2024/03/20 11:03:58;;;;;;;;;;;19.80;41.60;;;;;;8355064;28;20375;-55
2024/03/20 11:07:59;;;;;;;;;;;19.80;41.30;;;;;;8355262;28;19913;-55
2024/03/20 11:12:07;;;;;;;;;;;19.80;41.10;;;;;;8354944;28;19913;-55
2024/03/20 11:16:20;;;;;;;;;;;19.90;41.00;;;;;;8360750;28;19946;-55
2024/03/20 11:20:33;;;;;;;;;;;19.90;40.90;;;;;;8360738;28;20311;-55
2024/03/20 11:24:34;;;;;;;;;;;19.90;40.80;;;;;;8360728;28;19909;-55
2024/03/20 11:28:34;;;;;;;;;;;19.90;40.70;;;;;;8360855;28;19916;-55
2024/03/20 11:32:36;;;;;;;;;;;19.90;40.60;;;;;;8360489;28;19973;-54
2024/03/20 11:36:36;;;;;;;;;;;19.80;42.10;;;;;;8360351;28;19976;-55
2024/03/20 11:40:38;;;;;;;;;;;19.70;42.90;;;;;;8360308;28;20297;-54
2024/03/20 11:44:39;;;;;;;;;;;19.70;42.30;;;;;;8359903;27;20341;-55
2024/03/20 11:48:40;;;;;;;;;;;19.80;41.80;;;;;;8360334;28;19991;-53
2024/03/20 11:52:41;;;;;;;;;;;19.90;41.50;;;;;;8359921;28;19953;-54
2024/03/20 11:56:41;;;;;;;;;;;19.80;41.20;;;;;;8359860;28;19913;-54
2024/03/20 12:00:42;;;;;;;;;;;19.90;41.10;;;;;;8359939;28;19923;-54
2024/03/20 12:04:43;;;;;;;;;;;19.90;41.00;;;;;;8359769;28;19920;-53
2024/03/20 12:08:47;;;;;;;;;;;19.90;40.80;;;;;;8359458;28;19935;-55
2024/03/20 12:12:47;;;;;;;;;;;19.90;40.80;;;;;;8359512;27;20365;-53
2024/03/20 12:16:48;;;;;;;;;;;19.90;40.70;;;;;;8359320;28;20327;-55
2024/03/20 12:20:48;;;;;;;;;;;19.90;40.60;;;;;;8359459;28;19952;-54
2024/03/20 12:24:51;;;;;;;;;;;19.70;42.20;;;;;;8341368;28;20005;-54
2024/03/20 12:28:52;;;;;;;;;;;19.60;42.90;;;;;;8358893;28;19960;-54
2024/03/20 12:32:52;;;;;;;;;;;19.70;42.20;;;;;;8359047;28;20373;-54
2024/03/20 12:36:53;;;;;;;;;;;19.70;41.70;;;;;;8358951;28;19917;-54
2024/03/20 12:40:53;;;;;;;;;;;19.80;41.40;;;;;;8358836;28;20479;-55
2024/03/20 12:44:54;;;;;;;;;;;19.80;41.10;;;;;;8358500;27;19957;-55
2024/03/20 12:48:55;;;;;;;;;;;19.90;41.10;;;;;;8358443;28;19913;-55
2024/03/20 12:52:56;;;;;;;;;;;19.90;40.90;;;;;;8340660;28;20438;-55
2024/03/20 12:56:57;;;;;;;;;;;19.90;40.80;;;;;;8358452;28;20289;-55
2024/03/20 13:00:58;;;;;;;;;;;19.90;40.70;;;;;;8358231;28;19913;-54
2024/03/20 13:04:58;;;;;;;;;;;19.90;40.60;;;;;;8359095;28;20004;-55
2024/03/20 13:08:59;;;;;;;;;;;19.90;40.70;;;;;;8358132;28;19913;-55
2024/03/20 13:13:04;;;;;;;;;;;19.70;42.30;;;;;;8357584;27;19956;-51
2024/03/20 13:17:04;;;;;;;;;;;19.70;42.90;;;;;;8357859;28;19913;-52
2024/03/20 13:21:12;;;;;;;;;;;19.70;42.40;;;;;;8357957;28;19913;-51
2024/03/20 13:25:14;;;;;;;;;;;19.90;42.30;;;;;;8335969;28;20446;-58
2024/03/20 13:29:18;;;;;;;;;;;19.90;42.30;;;;;;8355761;28;19909;-55
2024/03/20 13:33:18;;;;;;;;;;;20.00;42.40;;;;;;8339694;28;19919;-53
2024/03/20 13:37:21;;;;;;;;;;;20.00;42.00;;;;;;8356342;28;19917;-56
2024/03/20 13:45:22;;;;;;;;;;;20.10;41.50;;;;;;8357296;28;19930;-57
2024/03/20 13:49:23;;;;;;;;;;;20.10;41.60;;;;;;8357013;28;19967;-55
2024/03/20 13:53:23;;;;;;;;;;;20.10;41.50;;;;;;8356907;28;19939;-56
2024/03/20 13:57:27;;;;;;;;;;;20.10;41.90;;;;;;8356910;28;19916;-56
2024/03/20 14:01:29;;;;;;;;;;;19.90;42.80;;;;;;8356943;28;19924;-57
2024/03/20 14:05:30;;;;;;;;;;;19.80;43.20;;;;;;8356533;28;20335;-54
2024/03/20 14:09:30;;;;;;;;;;;19.80;42.70;;;;;;8356533;28;19935;-56
2024/03/20 14:13:31;;;;;;;;;;;19.90;42.30;;;;;;8356455;27;19925;-55
2024/03/20 14:17:31;;;;;;;;;;;20.00;42.10;;;;;;8338643;28;19952;-55
2024/03/20 14:21:32;;;;;;;;;;;20.00;42.00;;;;;;8356334;28;19913;-56
2024/03/20 14:25:34;;;;;;;;;;;20.00;41.90;;;;;;8356111;28;19938;-54
2024/03/20 14:29:35;;;;;;;;;;;20.10;41.80;;;;;;8356134;28;20282;-57
2024/03/20 14:33:35;;;;;;;;;;;20.10;41.80;;;;;;8356136;28;20013;-57
2024/03/20 14:37:36;;;;;;;;;;;20.00;41.60;;;;;;8355880;28;19920;-54
2024/03/20 14:41:37;;;;;;;;;;;20.10;41.70;;;;;;8355498;27;20287;-55
2024/03/20 14:45:38;;;;;;;;;;;20.00;42.00;;;;;;8355910;28;19920;-55
2024/03/20 14:49:38;;;;;;;;;;;19.90;42.90;;;;;;8354425;28;19920;-55
2024/03/20 14:53:39;;;;;;;;;;;19.80;43.20;;;;;;8336325;28;20129;-58
2024/03/20 14:57:39;;;;;;;;;;;19.90;42.70;;;;;;8350329;28;19913;-55
2024/03/20 15:01:40;;;;;;;;;;;19.90;42.50;;;;;;8354587;28;19917;-54
2024/03/20 15:05:41;;;;;;;;;;;20.00;42.30;;;;;;8354965;28;20254;-56
2024/03/20 15:09:42;;;;;;;;;;;20.00;42.10;;;;;;8355495;28;20326;-50
2024/03/20 15:13:44;;;;;;;;;;;20.00;42.00;;;;;;8391673;27;19923;-56
2024/03/20 15:17:46;;;;;;;;;;;20.10;41.90;;;;;;8528145;27;19955;-56
2024/03/20 15:21:47;;;;;;;;;;;20.10;41.80;;;;;;8527741;27;19918;-57
2024/03/20 15:25:47;;;;;;;;;;;20.10;41.80;;;;;;8453277;27;20430;-58
2024/03/20 15:29:48;;;;;;;;;;;20.10;41.80;;;;;;8354441;28;19920;-54
2024/03/20 15:33:49;;;;;;;;;;;20.00;42.30;;;;;;8386411;27;19911;-56
2024/03/20 15:37:49;;;;;;;;;;;19.90;43.30;;;;;;8527952;27;19962;-55
2024/03/20 15:41:51;;;;;;;;;;;19.80;43.20;;;;;;8506690;27;19913;-55
2024/03/20 15:45:52;;;;;;;;;;;19.90;42.90;;;;;;8436040;27;19908;-56
2024/03/20 15:49:52;;;;;;;;;;;19.90;42.50;;;;;;8527351;27;20383;-54
2024/03/20 15:53:53;;;;;;;;;;;20.00;42.30;;;;;;8415768;27;19961;-54
2024/03/20 15:57:54;;;;;;;;;;;20.00;42.20;;;;;;8353621;28;19921;-57
2024/03/20 16:01:54;;;;;;;;;;;20.10;42.10;;;;;;8358963;28;20007;-55
2024/03/20 16:05:59;;;;;;;;;;;20.10;41.90;;;;;;8359476;28;20335;-53
2024/03/20 16:10:00;;;;;;;;;;;20.10;41.80;;;;;;8435915;27;20022;-55
2024/03/20 16:14:00;;;;;;;;;;;20.10;41.80;;;;;;8416648;27;19921;-53
2024/03/20 16:18:01;;;;;;;;;;;20.10;41.70;;;;;;8359040;28;19924;-57
2024/03/20 16:22:02;;;;;;;;;;;20.00;42.40;;;;;;8358516;28;19913;-57
2024/03/20 16:26:04;;;;;;;;;;;19.90;43.30;;;;;;8359053;28;20007;-53
2024/03/20 16:30:12;;;;;;;;;;;19.80;43.10;;;;;;8358082;28;19978;-58
2024/03/20 16:34:13;;;;;;;;;;;19.90;43.00;;;;;;8358760;28;19909;-56
2024/03/20 16:38:13;;;;;;;;;;;20.00;42.50;;;;;;8358614;28;20385;-54
2024/03/20 16:42:14;;;;;;;;;;;20.00;42.30;;;;;;8358931;27;19948;-57
2024/03/20 16:46:14;;;;;;;;;;;20.00;42.20;;;;;;8358604;28;20007;-56
2024/03/20 16:50:15;;;;;;;;;;;20.10;42.60;;;;;;8358392;28;19913;-58
2024/03/20 16:54:15;;;;;;;;;;;20.10;42.00;;;;;;8408191;27;19980;-53
2024/03/20 16:58:16;;;;;;;;;;;20.10;41.90;;;;;;8399965;27;19969;-55
2024/03/20 17:02:17;;;;;;;;;;;20.10;41.90;;;;;;8344169;28;19920;-53
2024/03/20 17:06:18;;;;;;;;;;;20.10;41.80;;;;;;8358382;28;19919;-56
2024/03/20 17:10:19;;;;;;;;;;;20.00;42.60;;;;;;8356943;28;19912;-55
2024/03/20 17:14:19;;;;;;;;;;;19.80;43.30;;;;;;8357860;27;19921;-56
2024/03/20 17:18:20;;;;;;;;;;;19.90;43.20;;;;;;8357760;28;20434;-56
2024/03/20 17:22:20;;;;;;;;;;;19.90;42.80;;;;;;8357402;28;20004;-56
2024/03/20 17:26:21;;;;;;;;;;;20.00;42.50;;;;;;8357706;28;19917;-52
2024/03/20 17:30:22;;;;;;;;;;;20.00;42.30;;;;;;8357486;28;19913;-56
2024/03/20 17:34:23;;;;;;;;;;;20.10;42.20;;;;;;8357485;28;19997;-55
2024/03/20 17:38:23;;;;;;;;;;;20.10;42.00;;;;;;8357796;28;20004;-55
2024/03/20 17:42:24;;;;;;;;;;;20.10;41.90;;;;;;8359034;27;19920;-56
2024/03/20 17:46:25;;;;;;;;;;;20.10;41.80;;;;;;8357275;28;19916;-53
2024/03/20 17:50:27;;;;;;;;;;;20.10;41.80;;;;;;8357011;28;19909;-54
2024/03/20 17:54:28;;;;;;;;;;;20.10;41.90;;;;;;8356715;28;20550;-51
2024/03/20 17:58:28;;;;;;;;;;;20.00;42.80;;;;;;8356760;28;20189;-53
2024/03/20 18:02:29;;;;;;;;;;;19.80;43.50;;;;;;8356972;28;19913;-53
2024/03/20 18:06:30;;;;;;;;;;;19.80;43.30;;;;;;8356769;28;19940;-56
2024/03/20 18:10:30;;;;;;;;;;;19.80;42.70;;;;;;8356772;28;19999;-55
2024/03/20 18:14:33;;;;;;;;;;;19.90;42.40;;;;;;8356803;27;19932;-55
2024/03/20 18:18:33;;;;;;;;;;;19.90;42.20;;;;;;8356214;28;19966;-55
2024/03/20 18:22:34;;;;;;;;;;;19.90;42.00;;;;;;8356206;28;19958;-56
2024/03/20 18:26:34;;;;;;;;;;;20.00;41.90;;;;;;8356393;28;20447;-56
2024/03/20 18:30:38;;;;;;;;;;;20.00;41.70;;;;;;8356038;28;19912;-56
2024/03/20 18:34:41;;;;;;;;;;;19.90;41.60;;;;;;8356094;28;19988;-56
2024/03/20 18:38:41;;;;;;;;;;;20.00;41.60;;;;;;8355756;28;19921;-53
2024/03/20 18:42:42;;;;;;;;;;;19.90;41.40;;;;;;8355582;28;19913;-56
2024/03/20 18:46:42;;;;;;;;;;;19.80;42.60;;;;;;8356007;28;20290;-55
2024/03/20 18:50:43;;;;;;;;;;;19.70;43.40;;;;;;8355789;28;19920;-56
2024/03/20 18:54:44;;;;;;;;;;;19.70;43.00;;;;;;8355616;28;20401;-56
2024/03/20 18:58:44;;;;;;;;;;;19.70;42.60;;;;;;8355385;28;19962;-54
2024/03/20 19:02:48;;;;;;;;;;;19.80;42.20;;;;;;8355311;28;19919;-56
2024/03/20 19:06:49;;;;;;;;;;;19.80;42.00;;;;;;8355205;28;19963;-56
2024/03/20 19:10:49;;;;;;;;;;;19.90;41.90;;;;;;8355336;28;19913;-55
2024/03/20 19:14:50;;;;;;;;;;;19.90;41.70;;;;;;8354986;27;20015;-56
2024/03/20 19:18:51;;;;;;;;;;;19.90;41.60;;;;;;8337059;28;19917;-56
2024/03/20 19:22:52;;;;;;;;;;;19.80;41.50;;;;;;8354931;28;19913;-55
2024/03/20 19:26:53;;;;;;;;;;;19.90;41.40;;;;;;8354904;28;20289;-54
2024/03/20 19:30:53;;;;;;;;;;;19.80;41.30;;;;;;8354617;28;19909;-55
2024/03/20 19:34:57;;;;;;;;;;;19.80;42.60;;;;;;8357411;28;19940;-56
2024/03/20 19:38:57;;;;;;;;;;;19.60;43.40;;;;;;8360165;28;20556;-56
2024/03/20 19:42:58;;;;;;;;;;;19.60;42.80;;;;;;8360221;27;20286;-55
2024/03/20 19:46:58;;;;;;;;;;;19.70;42.40;;;;;;8360596;28;19958;-55
2024/03/20 19:50:59;;;;;;;;;;;19.70;42.10;;;;;;8360000;28;19913;-56
2024/03/20 19:55:00;;;;;;;;;;;19.80;41.90;;;;;;8360067;28;20498;-55
2024/03/20 19:59:00;;;;;;;;;;;19.80;41.70;;;;;;8360248;28;19960;-56
2024/03/20 20:03:07;;;;;;;;;;;19.80;41.70;;;;;;8359926;28;20173;-56
2024/03/20 20:07:08;;;;;;;;;;;19.90;41.60;;;;;;8359702;28;19909;-55
2024/03/20 20:11:11;;;;;;;;;;;19.80;41.40;;;;;;8359569;28;19920;-55
2024/03/20 20:15:12;;;;;;;;;;;19.80;41.40;;;;;;8359585;27;20015;-55
2024/03/20 20:19:12;;;;;;;;;;;19.80;41.40;;;;;;8359128;28;19917;-55
2024/03/20 20:23:13;;;;;;;;;;;19.70;42.60;;;;;;8359208;28;19920;-56
2024/03/20 20:27:14;;;;;;;;;;;19.60;43.20;;;;;;8359692;28;20297;-55
2024/03/20 20:31:14;;;;;;;;;;;19.60;42.70;;;;;;8359131;28;19913;-57
2024/03/20 20:35:15;;;;;;;;;;;19.70;42.30;;;;;;8359048;28;20396;-57
2024/03/20 20:39:15;;;;;;;;;;;19.70;42.00;;;;;;8358841;28;19924;-54
2024/03/20 20:43:16;;;;;;;;;;;19.80;41.80;;;;;;8358623;27;20144;-57
2024/03/20 20:47:16;;;;;;;;;;;19.80;41.60;;;;;;8358650;28;20377;-56
2024/03/20 20:51:17;;;;;;;;;;;19.80;41.50;;;;;;8359243;28;19920;-56
2024/03/20 20:55:18;;;;;;;;;;;19.80;41.40;;;;;;8358500;28;20289;-56
2024/03/20 20:59:19;;;;;;;;;;;19.80;41.30;;;;;;8358239;28;20280;-57
2024/03/20 21:21:02;;;;;;;;;;;19.60;42.40;;;;;;8282961;28;19924;-56
2024/03/20 21:25:03;;;;;;;;;;;19.70;42.00;;;;;;8357792;28;19920;-56
2024/03/20 21:29:03;;;;;;;;;;;19.70;41.80;;;;;;8357327;28;19909;-56
2024/03/20 21:33:04;;;;;;;;;;;19.70;41.60;;;;;;8358023;28;19913;-55
2024/03/20 21:37:08;;;;;;;;;;;19.70;41.40;;;;;;8357433;28;20569;-56
2024/03/20 21:41:09;;;;;;;;;;;19.80;41.30;;;;;;8357172;28;20015;-55
2024/03/20 21:45:09;;;;;;;;;;;19.80;41.20;;;;;;8357031;27;19977;-54
2024/03/20 21:49:10;;;;;;;;;;;19.90;41.20;;;;;;8339508;28;20116;-55
2024/03/20 21:53:10;;;;;;;;;;;19.80;41.00;;;;;;8356899;28;20003;-56
2024/03/20 21:57:11;;;;;;;;;;;19.80;41.90;;;;;;8356194;28;20573;-55
2024/03/20 22:01:12;;;;;;;;;;;19.60;42.80;;;;;;8357012;28;19966;-56
2024/03/20 22:05:12;;;;;;;;;;;19.60;42.60;;;;;;8356637;28;19969;-55
2024/03/20 22:09:14;;;;;;;;;;;19.70;42.00;;;;;;8356456;28;19967;-55
2024/03/20 22:13:15;;;;;;;;;;;19.80;41.70;;;;;;8356386;27;20450;-56
2024/03/20 22:17:16;;;;;;;;;;;19.80;41.50;;;;;;8356330;28;19917;-55
2024/03/20 22:21:16;;;;;;;;;;;19.80;41.40;;;;;;8356177;28;19908;-54
2024/03/20 22:25:17;;;;;;;;;;;19.80;41.30;;;;;;8356233;27;19924;-56
2024/03/20 22:29:18;;;;;;;;;;;19.90;41.20;;;;;;8356029;28;19909;-56
2024/03/20 22:33:19;;;;;;;;;;;19.80;41.00;;;;;;8357044;28;20362;-56
2024/03/20 22:37:19;;;;;;;;;;;19.80;41.00;;;;;;8356221;28;19921;-56
2024/03/20 22:41:20;;;;;;;;;;;19.80;40.80;;;;;;8355955;28;19913;-55
2024/03/20 22:45:21;;;;;;;;;;;19.80;41.90;;;;;;8356202;28;19920;-53
2024/03/20 22:49:21;;;;;;;;;;;19.60;42.80;;;;;;8355479;28;20587;-53
2024/03/20 22:53:22;;;;;;;;;;;19.60;42.50;;;;;;8337808;28;19913;-53
2024/03/20 22:57:22;;;;;;;;;;;19.70;42.10;;;;;;8355756;28;19919;-54
2024/03/20 23:01:23;;;;;;;;;;;19.70;41.70;;;;;;8355568;28;19965;-53
2024/03/20 23:05:24;;;;;;;;;;;19.80;41.50;;;;;;8337277;28;20282;-55
2024/03/20 23:09:24;;;;;;;;;;;19.80;41.30;;;;;;8357197;28;19913;-53
2024/03/20 23:13:25;;;;;;;;;;;19.80;41.30;;;;;;8361059;27;20019;-53
2024/03/20 23:17:26;;;;;;;;;;;19.80;41.10;;;;;;8360829;28;19920;-52
2024/03/20 23:21:26;;;;;;;;;;;19.80;40.90;;;;;;8361084;28;20405;-53
2024/03/20 23:25:27;;;;;;;;;;;19.80;40.90;;;;;;8360963;28;19916;-53
2024/03/20 23:29:27;;;;;;;;;;;19.80;40.80;;;;;;8342806;28;19923;-54
2024/03/20 23:33:28;;;;;;;;;;;19.70;42.00;;;;;;8342913;28;19913;-54
2024/03/20 23:37:29;;;;;;;;;;;19.50;42.80;;;;;;8360222;28;20008;-54
2024/03/20 23:41:29;;;;;;;;;;;19.50;42.40;;;;;;8360273;27;19916;-54